createdAt,value
2019-04-25T00:02:24.844Z,11.50
2019-04-25T00:04:53.444Z,11.50
2019-04-25T00:07:22.699Z,11.40
2019-04-25T00:09:52.999Z,11.20
2019-04-25T00:12:22.320Z,11.20
2019-04-25T00:14:51.339Z,11.20
2019-04-25T00:17:21.430Z,11.20
2019-04-25T00:19:51.046Z,11.20
2019-04-25T00:22:39.276Z,11.10
2019-04-25T00:25:15.948Z,11.00
2019-04-25T00:27:43.266Z,11.00
2019-04-25T00:30:11.331Z,11.00
2019-04-25T00:32:42.153Z,10.80
2019-04-25T00:35:11.709Z,10.80
2019-04-25T00:37:40.371Z,10.70
2019-04-25T00:40:09.168Z,10.60
2019-04-25T00:42:38.012Z,10.50
2019-04-25T00:45:09.755Z,10.40
2019-04-25T00:47:38.307Z,10.40
2019-04-25T00:50:06.999Z,10.30
2019-04-25T00:52:35.478Z,10.30
2019-04-25T00:55:04.551Z,10.40
2019-04-25T00:57:33.199Z,10.40
2019-04-25T01:00:11.823Z,10.40
2019-04-25T01:02:42.359Z,10.40
2019-04-25T01:05:12.143Z,10.40
2019-04-25T01:07:42.207Z,10.30
2019-04-25T01:10:12.712Z,10.20
2019-04-25T01:12:41.690Z,10.20
2019-04-25T01:15:12.483Z,10.20
2019-04-25T01:17:41.359Z,10.30
2019-04-25T01:20:10.952Z,10.30
2019-04-25T01:22:39.725Z,10.40
2019-04-25T01:25:09.982Z,10.40
2019-04-25T01:27:38.899Z,10.30
2019-04-25T01:30:09.291Z,10.30
2019-04-25T01:32:39.069Z,10.30
2019-04-25T01:35:14.034Z,10.20
2019-04-25T01:38:00.967Z,10.20
2019-04-25T01:40:47.108Z,10.20
2019-04-25T01:43:30.663Z,10.30
2019-04-25T01:45:59.351Z,10.30
2019-04-25T01:48:28.132Z,10.30
2019-04-25T01:50:56.747Z,10.30
2019-04-25T01:53:25.303Z,10.30
2019-04-25T01:56:01.579Z,10.30
2019-04-25T01:58:24.115Z,10.30
2019-04-25T02:00:54.635Z,10.30
2019-04-25T02:03:26.994Z,10.30
2019-04-25T02:05:55.237Z,10.30
2019-04-25T02:08:24.079Z,10.30
2019-04-25T02:11:10.476Z,10.30
2019-04-25T02:13:48.058Z,10.30
2019-04-25T02:16:16.956Z,10.20
2019-04-25T02:18:45.741Z,10.20
2019-04-25T02:21:14.271Z,10.20
2019-04-25T02:23:44.218Z,10.20
2019-04-25T02:26:16.708Z,10.10
2019-04-25T02:28:43.805Z,10.10
2019-04-25T02:31:17.608Z,10.10
2019-04-25T02:33:44.231Z,10.10
2019-04-25T02:36:15.064Z,10.00
2019-04-25T02:38:44.263Z,10.00
2019-04-25T02:41:14.704Z,9.90
2019-04-25T02:43:45.039Z,9.90
2019-04-25T02:46:31.439Z,9.90
2019-04-25T02:49:09.125Z,9.90
2019-04-25T02:51:36.396Z,9.90
2019-04-25T02:54:07.839Z,9.90
2019-04-25T02:56:38.690Z,9.90
2019-04-25T02:59:08.755Z,9.90
2019-04-25T03:01:36.084Z,9.90
2019-04-25T03:04:08.594Z,9.80
2019-04-25T03:06:35.308Z,9.80
2019-04-25T03:09:06.421Z,9.80
2019-04-25T03:11:35.652Z,9.80
2019-04-25T03:14:06.611Z,9.80
2019-04-25T03:16:34.936Z,9.80
2019-04-25T03:19:08.284Z,9.80
2019-04-25T03:21:39.569Z,9.80
2019-04-25T03:24:10.411Z,9.80
2019-04-25T03:26:40.644Z,9.80
2019-04-25T03:29:09.314Z,9.80
2019-04-25T03:31:38.263Z,9.80
2019-04-25T03:34:10.273Z,9.80
2019-04-25T03:36:37.376Z,9.80
2019-04-25T03:39:08.757Z,9.70
2019-04-25T03:41:37.334Z,9.80
2019-04-25T03:44:06.505Z,9.70
2019-04-25T03:46:35.102Z,9.70
2019-04-25T03:49:05.311Z,9.70
2019-04-25T03:51:34.578Z,9.70
2019-04-25T03:54:04.873Z,9.70
2019-04-25T03:56:33.443Z,9.60
2019-04-25T03:59:04.826Z,9.50
2019-04-25T04:01:34.128Z,9.60
2019-04-25T04:04:05.417Z,9.50
2019-04-25T04:06:33.985Z,9.50
2019-04-25T04:09:04.586Z,9.50
2019-04-25T04:11:33.719Z,9.50
2019-04-25T04:14:04.924Z,9.50
2019-04-25T04:16:34.565Z,9.50
2019-04-25T04:19:04.900Z,9.50
2019-04-25T04:21:43.839Z,9.50
2019-04-25T04:24:20.099Z,9.50
2019-04-25T04:27:09.020Z,9.50
2019-04-25T04:29:37.791Z,9.50
2019-04-25T04:32:06.975Z,9.50
2019-04-25T04:34:35.943Z,9.50
2019-04-25T04:37:04.668Z,9.50
2019-04-25T04:39:33.835Z,9.40
2019-04-25T04:42:03.833Z,9.40
2019-04-25T04:44:34.180Z,9.40
2019-04-25T04:47:03.955Z,9.40
2019-04-25T04:49:34.094Z,9.40
2019-04-25T04:52:06.162Z,9.40
2019-04-25T04:54:34.426Z,9.40
2019-04-25T04:57:16.683Z,9.40
2019-04-25T04:59:33.814Z,9.30
2019-04-25T05:02:04.126Z,9.40
2019-04-25T05:04:43.590Z,9.40
2019-04-25T05:07:30.644Z,9.40
2019-04-25T05:09:59.428Z,9.50
2019-04-25T05:12:27.875Z,9.50
2019-04-25T05:14:56.697Z,9.50
2019-04-25T05:17:25.458Z,9.50
2019-04-25T05:19:54.060Z,9.50
2019-04-25T05:22:24.285Z,9.50
2019-04-25T05:24:53.526Z,9.50
2019-04-25T05:27:37.121Z,9.60
2019-04-25T05:29:53.879Z,9.60
2019-04-25T05:32:24.136Z,9.60
2019-04-25T05:34:53.257Z,9.70
2019-04-25T05:37:24.072Z,9.70
2019-04-25T05:39:53.569Z,9.70
2019-04-25T05:42:24.799Z,9.70
2019-04-25T05:44:55.958Z,9.70
2019-04-25T05:47:26.060Z,9.80
2019-04-25T05:49:54.810Z,9.90
2019-04-25T05:52:24.318Z,9.90
2019-04-25T05:54:54.069Z,10.00
2019-04-25T05:57:23.924Z,10.10
2019-04-25T05:59:53.740Z,10.10
2019-04-25T06:02:24.470Z,10.20
2019-04-25T06:04:53.516Z,10.20
2019-04-25T06:07:22.150Z,10.30
2019-04-25T06:09:55.134Z,10.30
2019-04-25T06:12:31.538Z,10.40
2019-04-25T06:14:59.989Z,10.40
2019-04-25T06:17:38.622Z,10.50
2019-04-25T06:20:09.151Z,10.50
2019-04-25T06:22:56.119Z,10.70
2019-04-25T06:25:30.723Z,10.80
2019-04-25T06:28:13.730Z,11.00
2019-04-25T06:30:44.220Z,11.10
2019-04-25T06:33:13.373Z,11.20
2019-04-25T06:35:44.061Z,11.30
2019-04-25T06:38:13.336Z,11.40
2019-04-25T06:40:43.607Z,11.40
2019-04-25T06:43:13.476Z,11.50
2019-04-25T06:45:55.804Z,11.60
2019-04-25T06:48:26.265Z,11.70
2019-04-25T06:50:55.663Z,11.70
2019-04-25T06:53:25.487Z,11.80
2019-04-25T06:55:54.556Z,11.90
2019-04-25T06:58:25.660Z,12.00
2019-04-25T07:00:58.769Z,12.10
2019-04-25T07:03:24.924Z,12.20
2019-04-25T07:05:53.792Z,12.30
2019-04-25T07:08:25.437Z,12.40
2019-04-25T07:10:53.975Z,12.50
2019-04-25T07:13:24.660Z,12.60
2019-04-25T07:15:53.454Z,12.70
2019-04-25T07:18:23.536Z,12.80
2019-04-25T07:20:53.385Z,12.90
2019-04-25T07:23:23.535Z,13.00
2019-04-25T07:25:53.896Z,13.10
2019-04-25T07:28:29.032Z,13.20
2019-04-25T07:31:11.431Z,13.30
2019-04-25T07:33:50.246Z,13.40
2019-04-25T07:36:18.727Z,13.50
2019-04-25T07:38:47.255Z,13.70
2019-04-25T07:41:16.393Z,13.80
2019-04-25T07:43:45.276Z,13.80
2019-04-25T07:46:14.134Z,14.00
2019-04-25T07:48:43.863Z,14.00
2019-04-25T07:51:15.870Z,14.10
2019-04-25T07:53:43.658Z,14.20
2019-04-25T07:56:14.090Z,14.40
2019-04-25T07:58:50.550Z,14.50
2019-04-25T08:01:14.947Z,14.60
2019-04-25T08:03:43.994Z,14.70
2019-04-25T08:06:13.703Z,14.80
2019-04-25T08:08:43.574Z,14.90
2019-04-25T08:11:14.001Z,15.00
2019-04-25T08:14:01.134Z,15.10
2019-04-25T08:16:31.224Z,15.20
2019-04-25T08:19:01.239Z,15.30
2019-04-25T08:21:30.635Z,15.40
2019-04-25T08:24:00.551Z,15.50
2019-04-25T08:26:29.542Z,15.60
2019-04-25T08:28:58.218Z,15.80
2019-04-25T08:31:26.749Z,15.90
2019-04-25T08:33:55.340Z,16.10
2019-04-25T08:36:24.127Z,16.30
2019-04-25T08:38:53.451Z,16.30
2019-04-25T08:41:23.807Z,16.50
2019-04-25T08:43:54.312Z,16.60
2019-04-25T08:46:23.784Z,16.70
2019-04-25T08:49:06.111Z,16.90
2019-04-25T08:51:47.466Z,16.90
2019-04-25T08:54:20.362Z,17.00
2019-04-25T08:56:48.921Z,17.10
2019-04-25T08:59:40.725Z,17.20
2019-04-25T09:02:23.937Z,17.30
2019-04-25T09:05:13.837Z,17.40
2019-04-25T09:07:44.201Z,17.50
2019-04-25T09:10:13.508Z,17.60
2019-04-25T09:12:43.930Z,17.60
2019-04-25T09:15:14.091Z,17.70
2019-04-25T09:17:44.503Z,17.80
2019-04-25T09:20:14.043Z,17.90
2019-04-25T09:22:44.239Z,18.00
2019-04-25T09:25:13.808Z,18.20
2019-04-25T09:27:43.763Z,18.40
2019-04-25T09:30:14.338Z,18.50
2019-04-25T09:32:44.603Z,18.60
2019-04-25T09:35:13.756Z,18.80
2019-04-25T09:37:44.795Z,19.00
2019-04-25T09:40:14.643Z,19.20
2019-04-25T09:42:44.135Z,19.40
2019-04-25T09:45:26.406Z,19.50
2019-04-25T09:47:59.438Z,19.70
2019-04-25T09:50:35.026Z,19.90
2019-04-25T09:53:04.554Z,20.10
2019-04-25T09:55:46.845Z,20.40
2019-04-25T09:58:16.055Z,20.60
2019-04-25T10:00:49.198Z,20.90
2019-04-25T10:03:17.879Z,21.20
2019-04-25T10:05:46.872Z,21.50
2019-04-25T10:08:15.665Z,22.30
2019-04-25T10:10:44.699Z,22.90
2019-04-25T10:13:13.270Z,23.40
2019-04-25T10:15:54.549Z,23.80
2019-04-25T10:18:23.511Z,24.20
2019-04-25T10:20:54.128Z,24.50
2019-04-25T10:23:24.055Z,24.90
2019-04-25T10:25:53.743Z,25.20
2019-04-25T10:28:23.390Z,25.60
2019-04-25T10:30:53.105Z,26.10
2019-04-25T10:33:24.387Z,26.60
2019-04-25T10:35:58.948Z,27.10
2019-04-25T10:38:26.662Z,27.60
2019-04-25T10:40:55.671Z,28.20
2019-04-25T10:43:24.563Z,28.80
2019-04-25T10:45:55.087Z,28.60
2019-04-25T10:48:24.101Z,28.40
2019-04-25T10:50:53.896Z,29.10
2019-04-25T10:53:23.253Z,29.90
2019-04-25T10:55:53.567Z,30.20
2019-04-25T10:58:22.459Z,30.40
2019-04-25T11:00:53.076Z,30.70
2019-04-25T11:03:40.735Z,31.00
2019-04-25T11:06:10.167Z,32.00
2019-04-25T11:08:39.499Z,32.50
2019-04-25T11:11:10.488Z,33.10
2019-04-25T11:13:39.223Z,32.70
2019-04-25T11:16:08.315Z,33.30
2019-04-25T11:18:36.903Z,33.90
2019-04-25T11:21:06.083Z,34.40
2019-04-25T11:23:35.227Z,34.70
2019-04-25T11:26:04.057Z,35.50
2019-04-25T11:28:33.776Z,36.00
2019-04-25T11:31:05.275Z,36.20
2019-04-25T11:33:35.099Z,37.10
2019-04-25T11:36:04.182Z,37.50
2019-04-25T11:38:37.611Z,38.20
2019-04-25T11:41:07.938Z,38.00
2019-04-25T11:43:36.699Z,38.20
2019-04-25T11:46:05.763Z,39.80
2019-04-25T11:48:34.383Z,40.40
2019-04-25T11:51:03.721Z,41.00
2019-04-25T11:53:33.895Z,41.40
2019-04-25T11:56:03.691Z,41.30
2019-04-25T11:58:32.496Z,41.50
2019-04-25T12:01:01.082Z,40.20
2019-04-25T12:03:29.554Z,40.70
2019-04-25T12:05:58.146Z,42.10
2019-04-25T12:08:26.767Z,41.80
2019-04-25T12:10:55.218Z,40.60
2019-04-25T12:13:24.344Z,40.00
2019-04-25T12:15:54.554Z,40.40
2019-04-25T12:18:23.235Z,40.30
2019-04-25T12:20:51.686Z,41.10
2019-04-25T12:23:20.158Z,40.70
2019-04-25T12:25:48.607Z,40.40
2019-04-25T12:28:17.086Z,39.60
2019-04-25T12:30:46.221Z,38.70
2019-04-25T12:33:21.069Z,38.80
2019-04-25T12:35:47.804Z,39.20
2019-04-25T12:38:16.771Z,40.40
2019-04-25T12:40:46.876Z,38.50
2019-04-25T12:43:15.446Z,38.10
2019-04-25T12:45:58.307Z,38.60
2019-04-25T12:48:27.017Z,38.40
2019-04-25T12:50:56.659Z,38.40
2019-04-25T12:53:25.232Z,37.90
2019-04-25T12:55:54.857Z,36.90
2019-04-25T12:58:23.578Z,36.10
2019-04-25T13:00:54.974Z,35.30
2019-04-25T13:03:24.151Z,34.50
2019-04-25T13:05:52.721Z,33.70
2019-04-25T13:08:21.266Z,33.60
2019-04-25T13:10:49.954Z,33.50
2019-04-25T13:13:18.800Z,33.60
2019-04-25T13:15:47.251Z,33.40
2019-04-25T13:18:15.724Z,33.00
2019-04-25T13:20:44.170Z,32.90
2019-04-25T13:23:14.408Z,32.60
2019-04-25T13:25:44.171Z,32.50
2019-04-25T13:28:26.802Z,33.10
2019-04-25T13:31:05.486Z,33.50
2019-04-25T13:33:34.258Z,33.10
2019-04-25T13:36:08.255Z,33.20
2019-04-25T13:38:36.942Z,33.80
2019-04-25T13:41:05.784Z,34.30
2019-04-25T13:43:34.673Z,35.00
2019-04-25T13:46:03.196Z,35.40
2019-04-25T13:48:32.381Z,35.50
2019-04-25T13:51:01.339Z,35.40
2019-04-25T13:53:29.827Z,36.00
2019-04-25T13:55:58.518Z,36.60
2019-04-25T13:58:29.527Z,37.00
2019-04-25T14:00:57.838Z,37.50
2019-04-25T14:03:27.269Z,36.30
2019-04-25T14:05:55.887Z,34.70
2019-04-25T14:08:25.598Z,34.10
2019-04-25T14:10:54.358Z,34.20
2019-04-25T14:13:25.113Z,34.10
2019-04-25T14:15:55.687Z,33.10
2019-04-25T14:18:37.854Z,32.30
2019-04-25T14:21:13.694Z,31.70
2019-04-25T14:23:42.235Z,31.70
2019-04-25T14:26:11.117Z,31.60
2019-04-25T14:28:39.734Z,31.30
2019-04-25T14:31:09.899Z,31.10
2019-04-25T14:33:38.815Z,30.90
2019-04-25T14:36:07.479Z,30.70
2019-04-25T14:38:36.747Z,30.60
2019-04-25T14:41:06.197Z,30.10
2019-04-25T14:43:34.678Z,29.80
2019-04-25T14:46:03.334Z,29.60
2019-04-25T14:48:31.882Z,29.30
2019-04-25T14:51:00.335Z,29.20
2019-04-25T14:53:28.819Z,29.00
2019-04-25T14:56:08.038Z,28.80
2019-04-25T14:58:38.471Z,28.70
2019-04-25T15:01:07.459Z,28.40
2019-04-25T15:03:35.907Z,28.30
2019-04-25T15:06:04.522Z,27.90
2019-04-25T15:08:33.325Z,27.90
2019-04-25T15:11:01.867Z,27.70
2019-04-25T15:13:30.316Z,27.70
2019-04-25T15:15:58.863Z,27.80
2019-04-25T15:18:27.311Z,27.60
2019-04-25T15:20:55.794Z,27.60
2019-04-25T15:23:25.330Z,27.60
2019-04-25T15:25:54.039Z,27.50
2019-04-25T15:28:22.487Z,27.60
2019-04-25T15:30:53.236Z,27.70
2019-04-25T15:33:21.887Z,27.90
2019-04-25T15:35:52.481Z,27.90
2019-04-25T15:38:35.567Z,28.10
2019-04-25T15:41:08.843Z,28.00
2019-04-25T15:43:41.630Z,28.00
2019-04-25T15:46:14.830Z,27.90
2019-04-25T15:48:43.351Z,27.80
2019-04-25T15:51:12.129Z,27.60
2019-04-25T15:53:40.668Z,27.50
2019-04-25T15:56:09.114Z,27.60
2019-04-25T15:58:37.875Z,27.50
2019-04-25T16:01:07.040Z,27.40
2019-04-25T16:03:35.515Z,27.30
2019-04-25T16:06:04.243Z,27.10
2019-04-25T16:08:32.993Z,26.90
2019-04-25T16:11:02.025Z,26.80
2019-04-25T16:13:30.507Z,26.80
2019-04-25T16:15:59.293Z,26.70
2019-04-25T16:18:28.455Z,26.60
2019-04-25T16:20:57.106Z,26.60
2019-04-25T16:23:25.859Z,26.60
2019-04-25T16:25:54.322Z,26.60
2019-04-25T16:28:22.874Z,26.60
2019-04-25T16:30:51.462Z,26.60
2019-04-25T16:33:20.010Z,26.50
2019-04-25T16:35:48.458Z,26.60
2019-04-25T16:38:17.775Z,26.60
2019-04-25T16:40:46.559Z,26.50
2019-04-25T16:43:16.670Z,26.50
2019-04-25T16:45:45.326Z,26.40
2019-04-25T16:48:14.163Z,26.30
2019-04-25T16:50:42.755Z,26.10
2019-04-25T16:53:11.314Z,26.10
2019-04-25T16:55:40.829Z,26.10
2019-04-25T16:58:09.658Z,26.10
2019-04-25T17:00:42.793Z,26.20
2019-04-25T17:03:12.675Z,26.20
2019-04-25T17:05:41.339Z,26.20
2019-04-25T17:08:10.454Z,26.20
2019-04-25T17:10:39.517Z,26.20
2019-04-25T17:13:09.038Z,26.20
2019-04-25T17:15:55.791Z,26.20
2019-04-25T17:18:25.943Z,26.20
2019-04-25T17:21:08.173Z,26.20
2019-04-25T17:23:37.046Z,26.30
2019-04-25T17:26:07.051Z,26.40
2019-04-25T17:28:37.315Z,26.40
2019-04-25T17:31:07.546Z,26.40
2019-04-25T17:33:37.796Z,26.30
2019-04-25T17:36:13.672Z,26.30
2019-04-25T17:38:59.158Z,26.30
2019-04-25T17:41:27.683Z,26.40
2019-04-25T17:43:56.158Z,26.40
2019-04-25T17:46:24.611Z,26.30
2019-04-25T17:48:53.241Z,26.20
2019-04-25T17:51:21.756Z,26.10
2019-04-25T17:53:50.304Z,26.00
2019-04-25T17:56:19.239Z,26.00
2019-04-25T17:58:47.717Z,25.90
2019-04-25T18:01:17.946Z,25.80
2019-04-25T18:03:46.423Z,25.80
2019-04-25T18:06:14.875Z,25.70
2019-04-25T18:08:44.162Z,25.60
2019-04-25T18:11:12.818Z,25.50
2019-04-25T18:13:41.376Z,25.40
2019-04-25T18:16:20.319Z,25.30
2019-04-25T18:18:56.255Z,25.10
2019-04-25T18:21:25.048Z,25.00
2019-04-25T18:24:10.440Z,24.80
2019-04-25T18:26:55.626Z,24.80
2019-04-25T18:29:25.820Z,24.60
2019-04-25T18:31:54.683Z,24.40
2019-04-25T18:34:33.518Z,24.30
2019-04-25T18:37:20.044Z,24.10
2019-04-25T18:39:56.402Z,24.00
2019-04-25T18:42:36.439Z,23.80
2019-04-25T18:45:07.801Z,23.60
2019-04-25T18:47:36.966Z,23.50
2019-04-25T18:50:08.118Z,23.50
2019-04-25T18:52:40.770Z,23.40
2019-04-25T18:55:11.239Z,23.30
2019-04-25T18:57:45.485Z,23.30
2019-04-25T19:00:28.081Z,23.20
2019-04-25T19:03:01.238Z,23.10
2019-04-25T19:05:43.455Z,23.00
2019-04-25T19:08:12.170Z,22.90
2019-04-25T19:10:40.811Z,22.80
2019-04-25T19:13:12.837Z,22.70
2019-04-25T19:15:40.329Z,22.70
2019-04-25T19:18:09.756Z,22.60
2019-04-25T19:20:39.008Z,22.60
2019-04-25T19:23:08.602Z,22.60
2019-04-25T19:25:37.054Z,22.50
2019-04-25T19:28:05.670Z,22.40
2019-04-25T19:30:34.191Z,22.40
2019-04-25T19:33:02.752Z,22.30
2019-04-25T19:35:31.270Z,22.30
2019-04-25T19:38:01.455Z,22.30
2019-04-25T19:40:41.130Z,22.20
2019-04-25T19:43:14.594Z,22.20
2019-04-25T19:45:43.046Z,22.20
2019-04-25T19:48:11.522Z,22.20
2019-04-25T19:50:40.548Z,22.10
2019-04-25T19:53:10.284Z,22.10
2019-04-25T19:55:38.759Z,22.00
2019-04-25T19:58:07.279Z,22.00
2019-04-25T20:00:37.084Z,21.90
2019-04-25T20:03:07.467Z,21.80
2019-04-25T20:05:53.819Z,21.60
2019-04-25T20:08:24.047Z,21.40
2019-04-25T20:10:54.167Z,21.20
2019-04-25T20:13:22.691Z,21.00
2019-04-25T20:15:51.759Z,20.80
2019-04-25T20:18:20.471Z,20.70
2019-04-25T20:20:49.935Z,20.50
2019-04-25T20:23:18.578Z,20.30
2019-04-25T20:25:48.278Z,20.20
2019-04-25T20:28:16.857Z,20.00
2019-04-25T20:30:45.994Z,19.80
2019-04-25T20:33:15.513Z,19.60
2019-04-25T20:35:44.883Z,19.50
2019-04-25T20:38:14.470Z,19.30
2019-04-25T20:40:43.057Z,19.10
2019-04-25T20:43:11.535Z,18.80
2019-04-25T20:45:40.600Z,18.60
2019-04-25T20:48:09.155Z,18.40
2019-04-25T20:50:38.079Z,18.20
2019-04-25T20:53:06.627Z,17.90
2019-04-25T20:55:35.074Z,17.60
2019-04-25T20:58:03.795Z,17.40
2019-04-25T21:00:40.457Z,17.30
2019-04-25T21:03:09.107Z,17.20
2019-04-25T21:05:37.650Z,17.10
2019-04-25T21:08:06.122Z,17.00
2019-04-25T21:10:34.710Z,16.90
2019-04-25T21:13:05.162Z,16.80
2019-04-25T21:15:46.995Z,16.70
2019-04-25T21:18:26.082Z,16.60
2019-04-25T21:20:55.018Z,16.40
2019-04-25T21:23:23.543Z,16.40
2019-04-25T21:25:52.932Z,16.30
2019-04-25T21:28:21.599Z,16.30
2019-04-25T21:30:51.269Z,16.20
2019-04-25T21:33:20.247Z,16.20
2019-04-25T21:35:49.267Z,16.10
2019-04-25T21:38:18.162Z,16.10
2019-04-25T21:41:06.462Z,16.00
2019-04-25T21:43:40.094Z,16.00
2019-04-25T21:46:08.955Z,16.00
2019-04-25T21:48:37.679Z,15.80
2019-04-25T21:51:24.166Z,15.80
2019-04-25T21:53:52.837Z,15.80
2019-04-25T21:56:21.766Z,15.80
2019-04-25T21:58:50.224Z,15.80
2019-04-25T22:01:23.930Z,15.70
2019-04-25T22:03:52.572Z,15.70
2019-04-25T22:06:21.707Z,15.70
2019-04-25T22:08:50.230Z,15.70
2019-04-25T22:11:18.787Z,15.70
2019-04-25T22:13:47.524Z,15.70
2019-04-25T22:16:16.347Z,15.60
2019-04-25T22:18:45.271Z,15.60
2019-04-25T22:21:14.264Z,15.60
2019-04-25T22:23:43.115Z,15.60
2019-04-25T22:26:11.648Z,15.50
2019-04-25T22:28:40.394Z,15.50
2019-04-25T22:31:16.668Z,15.50
2019-04-25T22:33:46.900Z,15.50
2019-04-25T22:36:23.146Z,15.40
2019-04-25T22:39:11.099Z,15.40
2019-04-25T22:41:42.564Z,15.30
2019-04-25T22:44:13.475Z,15.30
2019-04-25T22:46:42.850Z,15.30
2019-04-25T22:49:11.831Z,15.20
2019-04-25T22:51:40.482Z,15.20
2019-04-25T22:54:09.537Z,15.10
2019-04-25T22:56:38.047Z,15.20
2019-04-25T22:59:07.232Z,15.10
2019-04-25T23:01:43.514Z,15.10
2019-04-25T23:04:22.702Z,15.10
2019-04-25T23:06:51.178Z,15.10
2019-04-25T23:09:19.708Z,15.00
2019-04-25T23:11:48.434Z,15.00
2019-04-25T23:14:17.190Z,14.90
2019-04-25T23:16:46.063Z,14.90
2019-04-25T23:19:14.617Z,14.90
2019-04-25T23:21:43.740Z,14.80
2019-04-25T23:24:13.964Z,14.80
2019-04-25T23:26:56.482Z,14.80
2019-04-25T23:29:25.362Z,14.80
2019-04-25T23:31:53.958Z,14.70
2019-04-25T23:34:22.811Z,14.70
2019-04-25T23:36:51.627Z,14.70
2019-04-25T23:39:20.379Z,14.70
2019-04-25T23:41:48.902Z,14.70
2019-04-25T23:44:17.459Z,14.60
2019-04-25T23:46:46.680Z,14.60
2019-04-25T23:49:15.226Z,14.60
2019-04-25T23:51:43.679Z,14.60
2019-04-25T23:54:12.967Z,14.60
2019-04-25T23:56:41.835Z,14.50
2019-04-25T23:59:11.502Z,14.40
